Time;durP1;ratioP1;P1;durP2;ratioP2;P2;SDS_P1;SDS_P2;PMS_P1;PMS_P2;Temp;Humidity;BMP_temperature;BMP_pressure;BME280_temperature;BME280_humidity;BME280_pressure;Samples;Min_cycle;Max_cycle;Signal;HPM_P1;HPM_P2
2022/01/24 00:01:18;;;;;;;225.98;93.63;;;;;;;;;;5020440;28;20112;-82
2022/01/24 00:03:46;;;;;;;204.00;89.30;;;;;;;;;;5037993;28;20101;-83
2022/01/24 00:06:16;;;;;;;193.52;84.22;;;;;;;;;;5020257;28;20029;-83
2022/01/24 00:08:44;;;;;;;227.35;94.85;;;;;;;;;;5037733;28;20025;-83
2022/01/24 00:11:16;;;;;;;212.93;92.07;;;;;;;;;;5020141;28;20022;-83
2022/01/24 00:27:27;;;;;;;211.40;93.85;;;;;;;;;;4938499;29;20035;-81
2022/01/24 00:29:55;;;;;;;206.65;91.30;;;;;;;;;;4938286;29;20035;-81
2022/01/24 00:32:23;;;;;;;193.30;86.53;;;;;;;;;;4938234;29;20103;-81
2022/01/24 00:34:51;;;;;;;215.07;92.00;;;;;;;;;;4922278;29;20513;-81
2022/01/24 00:37:18;;;;;;;234.65;102.85;;;;;;;;;;4922264;29;20043;-82
2022/01/24 00:39:47;;;;;;;233.23;103.25;;;;;;;;;;4922125;29;20032;-82
2022/01/24 00:42:30;;;;;;;228.98;91.97;;;;;;;;;;4922035;29;20119;-83
2022/01/24 00:45:13;;;;;;;238.02;100.50;;;;;;;;;;4938024;29;20028;-84
2022/01/24 00:55:42;;;;;;;274.60;105.13;;;;;;;;;;4967440;28;20456;-85
2022/01/24 00:58:08;;;;;;;277.20;103.32;;;;;;;;;;5033894;28;20060;-86
2022/01/24 01:00:34;;;;;;;270.42;100.38;;;;;;;;;;5056730;28;20033;-85
2022/01/24 01:03:02;;;;;;;281.00;103.90;;;;;;;;;;5056613;28;20311;-85
2022/01/24 01:18:04;;;;;;;288.20;105.78;;;;;;;;;;5056450;28;20025;-84
2022/01/24 01:19:05;;;;;;;296.98;115.45;;;;;;;;;;5056789;28;20095;-84
2022/01/24 01:21:33;;;;;;;294.50;111.55;;;;;;;;;;5056352;28;20036;-84
2022/01/24 01:24:01;;;;;;;304.67;118.72;;;;;;;;;;5056181;28;20029;-82
2022/01/24 01:26:38;;;;;;;325.98;124.07;;;;;;;;;;5038583;28;20448;-81
2022/01/24 01:29:24;;;;;;;351.33;114.15;;;;;;;;;;5056112;28;20104;-74
2022/01/24 01:32:10;;;;;;;362.67;110.93;;;;;;;;;;5056167;28;20024;-72
2022/01/24 01:56:01;;;;;;;376.88;106.93;;;;;;;;;;5035957;28;20060;-76
2022/01/24 01:58:29;;;;;;;375.50;105.45;;;;;;;;;;5043624;28;20453;-75
2022/01/24 02:00:59;;;;;;;330.77;99.13;;;;;;;;;;5053603;28;20036;-75
2022/01/24 02:03:30;;;;;;;329.73;100.07;;;;;;;;;;5039616;28;20025;-73
2022/01/24 02:05:58;;;;;;;311.17;97.72;;;;;;;;;;5036465;28;20029;-74
2022/01/24 02:08:30;;;;;;;375.75;113.15;;;;;;;;;;5038836;28;20375;-76
2022/01/24 02:11:01;;;;;;;391.65;116.43;;;;;;;;;;5032901;28;20064;-78
2022/01/24 02:13:30;;;;;;;327.00;104.90;;;;;;;;;;5033238;28;20084;-77
2022/01/24 02:16:09;;;;;;;323.98;103.70;;;;;;;;;;5039769;28;20018;-76
2022/01/24 02:23:42;;;;;;;298.17;99.05;;;;;;;;;;5040323;28;20116;-76
2022/01/24 02:26:13;;;;;;;299.67;101.13;;;;;;;;;;5039680;28;20108;-77
2022/01/24 02:31:45;;;;;;;295.52;97.40;;;;;;;;;;5039539;28;20029;-77
2022/01/24 02:34:30;;;;;;;408.17;118.50;;;;;;;;;;5039508;28;20024;-77
2022/01/24 02:36:59;;;;;;;369.05;115.00;;;;;;;;;;5022228;28;20022;-75
2022/01/24 02:51:04;;;;;;;470.75;161.55;;;;;;;;;;5039110;28;20374;-74
2022/01/24 02:53:34;;;;;;;623.20;236.35;;;;;;;;;;5047373;28;20017;-72
2022/01/24 02:56:02;;;;;;;428.20;139.82;;;;;;;;;;5050059;28;20056;-74
2022/01/24 02:58:30;;;;;;;325.92;106.32;;;;;;;;;;5058754;28;20052;-75
2022/01/24 03:00:58;;;;;;;360.98;121.05;;;;;;;;;;5059029;28;20024;-73
2022/01/24 03:03:26;;;;;;;350.23;114.72;;;;;;;;;;5058933;28;20071;-77
2022/01/24 03:05:53;;;;;;;368.70;121.75;;;;;;;;;;5040997;28;20170;-73
2022/01/24 03:08:22;;;;;;;311.83;105.75;;;;;;;;;;5038630;28;20025;-72
2022/01/24 03:10:51;;;;;;;327.90;111.50;;;;;;;;;;5059099;28;20036;-72
2022/01/24 03:15:51;;;;;;;282.92;98.78;;;;;;;;;;5038924;28;20017;-74
2022/01/24 03:18:21;;;;;;;290.80;98.95;;;;;;;;;;5038739;28;20033;-73
2022/01/24 03:20:49;;;;;;;287.35;99.25;;;;;;;;;;4997685;28;20047;-76
2022/01/24 03:23:18;;;;;;;246.32;91.35;;;;;;;;;;4997456;28;20046;-77
2022/01/24 03:25:45;;;;;;;249.85;90.97;;;;;;;;;;4997212;28;20042;-74
2022/01/24 03:28:13;;;;;;;260.02;93.75;;;;;;;;;;4997967;28;20062;-74
2022/01/24 03:30:42;;;;;;;275.05;97.55;;;;;;;;;;4997309;28;20467;-76
2022/01/24 03:33:10;;;;;;;275.98;100.50;;;;;;;;;;4997070;28;20038;-75
2022/01/24 03:35:40;;;;;;;290.17;99.63;;;;;;;;;;4996928;28;20019;-76
2022/01/24 03:38:08;;;;;;;307.50;106.18;;;;;;;;;;4996895;28;20038;-74
2022/01/24 03:40:35;;;;;;;299.67;106.55;;;;;;;;;;4997027;28;20102;-76
2022/01/24 03:43:03;;;;;;;247.80;98.55;;;;;;;;;;4997088;28;20329;-72
2022/01/24 03:45:43;;;;;;;222.93;91.28;;;;;;;;;;4996551;28;20093;-73
2022/01/24 03:48:26;;;;;;;237.98;88.18;;;;;;;;;;4996587;28;20022;-75
2022/01/24 03:50:54;;;;;;;245.63;93.43;;;;;;;;;;4996700;28;20049;-73
2022/01/24 03:53:22;;;;;;;237.27;97.65;;;;;;;;;;4996744;28;20027;-73
2022/01/24 03:55:50;;;;;;;245.30;106.60;;;;;;;;;;4996358;28;20055;-69
2022/01/24 03:58:16;;;;;;;200.77;84.50;;;;;;;;;;5017887;28;20049;-75
2022/01/24 04:00:43;;;;;;;195.90;84.22;;;;;;;;;;5019854;28;20438;-75
2022/01/24 04:03:14;;;;;;;189.85;80.13;;;;;;;;;;5049051;28;20043;-76
2022/01/24 04:05:42;;;;;;;178.68;80.85;;;;;;;;;;5057609;28;20071;-80
2022/01/24 04:08:12;;;;;;;226.90;96.68;;;;;;;;;;5058953;28;20029;-79
2022/01/24 04:10:55;;;;;;;248.93;115.65;;;;;;;;;;5060539;28;20025;-84
2022/01/24 04:13:44;;;;;;;243.50;104.70;;;;;;;;;;5055698;28;20028;-82
2022/01/24 04:16:27;;;;;;;218.82;94.55;;;;;;;;;;5046379;28;20032;-76
2022/01/24 04:19:17;;;;;;;187.32;79.18;;;;;;;;;;5035022;28;20021;-75
2022/01/24 04:21:47;;;;;;;182.43;76.53;;;;;;;;;;5055177;28;20453;-76
2022/01/24 04:24:20;;;;;;;222.30;95.60;;;;;;;;;;5052926;28;20027;-75
2022/01/24 04:26:47;;;;;;;157.60;65.03;;;;;;;;;;5029916;28;20022;-74
2022/01/24 04:29:15;;;;;;;130.30;58.78;;;;;;;;;;5031871;28;20025;-73
2022/01/24 04:31:44;;;;;;;136.48;57.78;;;;;;;;;;5015140;28;20022;-73
2022/01/24 04:34:11;;;;;;;135.50;54.17;;;;;;;;;;5016508;28;20029;-72
2022/01/24 04:36:39;;;;;;;135.93;57.28;;;;;;;;;;5019047;28;20438;-76
2022/01/24 04:39:07;;;;;;;141.77;57.13;;;;;;;;;;5016360;28;20033;-77
2022/01/24 04:41:38;;;;;;;145.98;60.05;;;;;;;;;;5035793;28;20326;-79
2022/01/24 04:44:17;;;;;;;134.95;56.85;;;;;;;;;;5036572;28;20100;-78
2022/01/24 04:54:48;;;;;;;155.50;60.35;;;;;;;;;;5036569;28;20022;-73
2022/01/24 04:57:16;;;;;;;214.13;86.60;;;;;;;;;;5036519;28;20374;-76
2022/01/24 04:59:47;;;;;;;235.43;93.57;;;;;;;;;;5032150;28;20041;-77
2022/01/24 05:02:15;;;;;;;229.68;95.57;;;;;;;;;;5035396;28;20029;-76
2022/01/24 05:04:43;;;;;;;247.48;99.53;;;;;;;;;;5036358;28;20014;-80
2022/01/24 05:07:13;;;;;;;205.23;84.13;;;;;;;;;;5018270;28;20022;-79
2022/01/24 05:23:35;;;;;;;197.88;79.80;;;;;;;;;;4957992;29;20046;-69
2022/01/24 05:26:04;;;;;;;228.13;92.03;;;;;;;;;;4955910;29;20334;-69
2022/01/24 05:28:33;;;;;;;204.95;83.38;;;;;;;;;;4956346;29;20460;-69
2022/01/24 05:31:01;;;;;;;244.45;93.80;;;;;;;;;;4956205;29;20054;-68
2022/01/24 05:33:29;;;;;;;218.27;84.13;;;;;;;;;;4955901;29;20060;-70
2022/01/24 05:35:57;;;;;;;228.75;88.93;;;;;;;;;;4956169;29;20054;-68
2022/01/24 05:38:25;;;;;;;152.70;65.55;;;;;;;;;;4940236;29;20027;-68
2022/01/24 05:40:53;;;;;;;180.32;71.22;;;;;;;;;;4942981;28;20785;-68
2022/01/24 05:43:21;;;;;;;178.07;70.05;;;;;;;;;;4955759;28;20037;-69
2022/01/24 05:45:49;;;;;;;136.40;56.53;;;;;;;;;;4968714;28;20081;-67
2022/01/24 05:48:17;;;;;;;128.20;52.83;;;;;;;;;;4956755;28;20364;-67
2022/01/24 05:50:44;;;;;;;110.07;45.95;;;;;;;;;;5035421;28;20032;-68
2022/01/24 05:53:11;;;;;;;117.43;49.55;;;;;;;;;;5033866;28;20099;-68
2022/01/24 05:55:39;;;;;;;103.32;44.47;;;;;;;;;;5035276;28;20411;-68
2022/01/24 05:58:05;;;;;;;99.32;41.95;;;;;;;;;;5049563;28;20346;-68
2022/01/24 06:00:33;;;;;;;87.80;35.90;;;;;;;;;;5055093;28;20021;-69
2022/01/24 06:03:01;;;;;;;90.57;39.90;;;;;;;;;;5055043;28;20100;-68
2022/01/24 06:05:28;;;;;;;100.40;43.47;;;;;;;;;;5055453;28;20074;-68
2022/01/24 06:07:56;;;;;;;88.03;36.78;;;;;;;;;;5037668;28;20086;-69
2022/01/24 06:10:23;;;;;;;101.50;38.38;;;;;;;;;;5055664;28;20326;-67
2022/01/24 06:12:54;;;;;;;83.03;34.58;;;;;;;;;;5055007;28;20135;-68
2022/01/24 06:15:22;;;;;;;89.40;37.05;;;;;;;;;;5055554;28;20028;-68
2022/01/24 06:17:49;;;;;;;86.05;34.92;;;;;;;;;;5037933;28;20326;-68
2022/01/24 06:20:17;;;;;;;105.65;37.65;;;;;;;;;;5037425;28;20333;-67
2022/01/24 06:22:45;;;;;;;133.85;54.47;;;;;;;;;;5061232;28;20025;-70
2022/01/24 06:25:13;;;;;;;107.40;42.80;;;;;;;;;;5044700;28;20025;-68
2022/01/24 06:27:44;;;;;;;118.53;47.65;;;;;;;;;;5058918;28;20021;-67
2022/01/24 06:30:14;;;;;;;117.97;47.90;;;;;;;;;;5042755;28;20028;-70
2022/01/24 06:32:42;;;;;;;121.03;43.22;;;;;;;;;;5063874;28;20502;-69
2022/01/24 06:35:11;;;;;;;124.68;48.88;;;;;;;;;;5040281;28;20029;-68
2022/01/24 06:37:39;;;;;;;127.38;50.90;;;;;;;;;;5040379;28;20055;-70
2022/01/24 06:40:11;;;;;;;128.68;53.70;;;;;;;;;;5059871;28;20026;-67
2022/01/24 06:42:39;;;;;;;127.45;55.45;;;;;;;;;;5043955;28;20036;-68
2022/01/24 06:45:10;;;;;;;143.70;55.38;;;;;;;;;;5043453;28;20029;-68
2022/01/24 06:47:45;;;;;;;148.38;53.85;;;;;;;;;;5045321;28;20426;-68
2022/01/24 06:50:13;;;;;;;107.10;40.65;;;;;;;;;;5061264;28;20029;-73
2022/01/24 06:52:41;;;;;;;124.60;44.95;;;;;;;;;;5042155;28;20032;-68
2022/01/24 06:55:09;;;;;;;109.72;40.13;;;;;;;;;;5042307;28;20025;-69
2022/01/24 06:57:35;;;;;;;122.22;44.95;;;;;;;;;;5060307;28;20045;-68
2022/01/24 07:00:04;;;;;;;96.90;39.75;;;;;;;;;;5061103;28;20083;-67
2022/01/24 07:02:40;;;;;;;107.10;40.63;;;;;;;;;;5044566;28;20102;-71
2022/01/24 07:05:08;;;;;;;132.13;53.45;;;;;;;;;;5058210;28;20027;-67
2022/01/24 07:07:35;;;;;;;91.28;37.75;;;;;;;;;;5058090;28;20025;-67
2022/01/24 07:10:03;;;;;;;91.93;40.72;;;;;;;;;;5058093;28;20017;-67
2022/01/24 07:12:31;;;;;;;91.45;40.67;;;;;;;;;;5058100;28;20017;-66
2022/01/24 07:15:04;;;;;;;99.00;43.90;;;;;;;;;;5040565;28;20025;-66
2022/01/24 07:17:56;;;;;;;105.63;43.63;;;;;;;;;;5058532;28;20059;-66
2022/01/24 07:20:19;;;;;;;99.97;44.58;;;;;;;;;;5057902;28;20037;-67
2022/01/24 07:22:46;;;;;;;123.20;52.47;;;;;;;;;;5040163;28;20120;-66
2022/01/24 07:25:14;;;;;;;124.70;55.30;;;;;;;;;;5058911;28;20116;-73
2022/01/24 07:27:42;;;;;;;109.68;49.70;;;;;;;;;;5040773;28;20112;-73
2022/01/24 07:30:09;;;;;;;93.80;39.42;;;;;;;;;;5060117;28;20017;-73
2022/01/24 07:32:39;;;;;;;94.03;39.15;;;;;;;;;;5060911;28;20021;-71
2022/01/24 07:35:07;;;;;;;92.32;41.17;;;;;;;;;;5041625;28;20021;-73
2022/01/24 07:37:34;;;;;;;111.47;48.88;;;;;;;;;;5049678;28;20052;-71
2022/01/24 07:40:05;;;;;;;101.20;47.58;;;;;;;;;;5058455;28;20021;-70
2022/01/24 07:45:20;;;;;;;98.65;40.90;;;;;;;;;;5058652;28;20166;-73
2022/01/24 07:47:48;;;;;;;84.45;37.78;;;;;;;;;;5060597;28;20025;-74
2022/01/24 07:50:23;;;;;;;99.00;41.95;;;;;;;;;;5058945;28;20020;-73
2022/01/24 07:52:50;;;;;;;116.70;45.30;;;;;;;;;;5039995;28;20043;-74
2022/01/24 07:55:18;;;;;;;128.10;50.67;;;;;;;;;;5057713;28;20028;-72
2022/01/24 07:57:44;;;;;;;118.55;45.28;;;;;;;;;;5057759;28;20048;-72
2022/01/24 08:00:12;;;;;;;108.47;44.03;;;;;;;;;;5058360;28;20056;-71
2022/01/24 08:02:40;;;;;;;127.10;48.63;;;;;;;;;;5057945;28;20106;-70
2022/01/24 08:05:08;;;;;;;152.05;60.63;;;;;;;;;;5056921;28;20063;-73
2022/01/24 08:07:36;;;;;;;186.13;72.38;;;;;;;;;;5058047;28;20103;-74
2022/01/24 08:10:05;;;;;;;118.60;47.47;;;;;;;;;;5040284;28;20025;-73
2022/01/24 08:12:35;;;;;;;116.28;48.03;;;;;;;;;;5058052;28;20013;-71
2022/01/24 08:15:08;;;;;;;126.10;49.28;;;;;;;;;;5058901;28;20037;-71
2022/01/24 08:17:40;;;;;;;131.75;55.63;;;;;;;;;;5062713;28;20084;-72
2022/01/24 08:20:09;;;;;;;123.70;52.38;;;;;;;;;;5060845;28;20043;-74
2022/01/24 08:22:36;;;;;;;120.40;49.63;;;;;;;;;;5076365;28;20032;-76
2022/01/24 08:25:04;;;;;;;131.63;56.13;;;;;;;;;;5078092;28;20013;-75
2022/01/24 08:27:37;;;;;;;129.63;52.22;;;;;;;;;;5077578;28;20033;-74
2022/01/24 08:30:06;;;;;;;114.57;47.00;;;;;;;;;;5077738;28;20035;-72
2022/01/24 08:32:35;;;;;;;122.63;50.85;;;;;;;;;;5075559;28;20044;-75
2022/01/24 08:35:04;;;;;;;118.68;50.25;;;;;;;;;;5059879;28;20049;-75
2022/01/24 08:37:31;;;;;;;132.95;51.45;;;;;;;;;;5077877;28;20025;-82
2022/01/24 08:39:59;;;;;;;112.30;48.22;;;;;;;;;;5076617;28;20025;-74
2022/01/24 08:42:42;;;;;;;132.07;50.40;;;;;;;;;;5075243;28;20036;-75
2022/01/24 08:48:22;;;;;;;110.78;45.75;;;;;;;;;;4982428;28;20035;-76
2022/01/24 08:50:50;;;;;;;108.97;46.60;;;;;;;;;;4961984;28;20019;-84
2022/01/24 08:53:18;;;;;;;131.05;56.05;;;;;;;;;;4977583;28;20158;-73
2022/01/24 08:55:46;;;;;;;128.25;53.33;;;;;;;;;;4979256;28;20046;-77
2022/01/24 08:58:14;;;;;;;150.80;60.25;;;;;;;;;;4976309;28;20046;-79
2022/01/24 09:00:43;;;;;;;123.25;52.63;;;;;;;;;;4978795;28;20089;-75
2022/01/24 09:03:12;;;;;;;165.13;78.70;;;;;;;;;;4976588;28;20065;-81
2022/01/24 09:05:40;;;;;;;119.50;51.22;;;;;;;;;;4976441;28;20094;-77
2022/01/24 09:08:09;;;;;;;138.52;60.75;;;;;;;;;;4976671;28;20022;-74
2022/01/24 09:10:39;;;;;;;125.65;56.88;;;;;;;;;;4964796;28;20054;-78
2022/01/24 09:13:07;;;;;;;127.30;53.50;;;;;;;;;;4960927;28;20035;-76
2022/01/24 09:15:35;;;;;;;125.90;50.45;;;;;;;;;;4960729;28;20054;-78
2022/01/24 09:18:03;;;;;;;150.68;61.97;;;;;;;;;;4969496;28;20034;-81
2022/01/24 09:20:31;;;;;;;141.60;61.80;;;;;;;;;;5056919;28;20021;-75
2022/01/24 09:22:58;;;;;;;124.75;53.78;;;;;;;;;;5055873;28;20036;-72
2022/01/24 09:25:26;;;;;;;120.88;53.00;;;;;;;;;;5055849;28;20028;-73
2022/01/24 09:27:54;;;;;;;108.18;49.55;;;;;;;;;;5038200;28;20031;-73
2022/01/24 09:30:23;;;;;;;107.72;49.53;;;;;;;;;;5036991;28;20024;-72
2022/01/24 09:32:50;;;;;;;100.50;47.55;;;;;;;;;;5036041;28;20017;-78
2022/01/24 09:35:21;;;;;;;106.97;49.65;;;;;;;;;;5018478;28;20484;-75
2022/01/24 09:37:49;;;;;;;93.80;43.20;;;;;;;;;;5035756;28;20029;-76
2022/01/24 09:40:17;;;;;;;91.00;43.35;;;;;;;;;;5035284;28;20373;-76
2022/01/24 09:42:45;;;;;;;98.50;47.17;;;;;;;;;;5035955;28;20040;-74
2022/01/24 09:45:14;;;;;;;107.07;49.90;;;;;;;;;;5035970;28;20048;-76
2022/01/24 09:47:41;;;;;;;107.68;46.90;;;;;;;;;;5017971;28;20021;-78
2022/01/24 09:50:10;;;;;;;101.32;46.53;;;;;;;;;;5018096;28;20042;-75
2022/01/24 09:52:41;;;;;;;87.38;43.78;;;;;;;;;;5021428;28;20025;-75
2022/01/24 09:55:09;;;;;;;88.43;41.75;;;;;;;;;;5037824;28;20021;-71
2022/01/24 09:57:41;;;;;;;94.10;43.85;;;;;;;;;;5036967;28;20083;-76
2022/01/24 10:00:11;;;;;;;115.82;48.53;;;;;;;;;;5050120;28;20024;-75
2022/01/24 10:02:39;;;;;;;101.72;46.70;;;;;;;;;;5032583;28;20091;-78
2022/01/24 10:05:37;;;;;;;124.55;51.15;;;;;;;;;;5051344;28;20032;-77
2022/01/24 10:08:09;;;;;;;94.65;44.75;;;;;;;;;;5036176;28;20425;-75
2022/01/24 10:10:41;;;;;;;97.97;46.63;;;;;;;;;;5054713;28;20090;-73
2022/01/24 10:16:35;;;;;;;95.25;42.55;;;;;;;;;;5049620;28;20113;-71
2022/01/24 10:19:14;;;;;;;115.05;51.25;;;;;;;;;;5055280;28;20029;-68
2022/01/24 10:21:50;;;;;;;98.32;45.10;;;;;;;;;;5037212;28;20029;-73
2022/01/24 10:24:36;;;;;;;97.40;44.90;;;;;;;;;;5012420;28;20089;-75
2022/01/24 10:27:17;;;;;;;99.10;46.80;;;;;;;;;;5012770;28;20034;-72
2022/01/24 10:29:55;;;;;;;105.82;48.30;;;;;;;;;;5016776;28;20061;-73
2022/01/24 10:32:55;;;;;;;114.07;52.47;;;;;;;;;;5000261;28;20145;-74
2022/01/24 10:35:46;;;;;;;115.43;53.58;;;;;;;;;;4958388;29;20027;-71
2022/01/24 10:43:46;;;;;;;101.55;48.38;;;;;;;;;;4959226;29;20031;-77
2022/01/24 10:46:23;;;;;;;115.75;51.25;;;;;;;;;;4958886;29;20156;-74
2022/01/24 10:49:00;;;;;;;116.03;53.80;;;;;;;;;;4968010;28;20043;-72
2022/01/24 10:51:27;;;;;;;129.48;57.85;;;;;;;;;;4977267;28;20035;-71
2022/01/24 10:53:57;;;;;;;133.77;57.47;;;;;;;;;;4977450;28;20026;-71
2022/01/24 10:56:25;;;;;;;123.35;53.50;;;;;;;;;;4960702;28;20029;-75
2022/01/24 10:58:53;;;;;;;122.95;54.00;;;;;;;;;;4977370;28;20104;-73
2022/01/24 11:01:27;;;;;;;122.88;56.63;;;;;;;;;;4977624;28;20030;-73
2022/01/24 11:04:08;;;;;;;113.15;54.35;;;;;;;;;;4978379;28;20043;-77
2022/01/24 11:06:38;;;;;;;124.35;54.95;;;;;;;;;;4978202;28;20142;-76
2022/01/24 11:09:23;;;;;;;130.55;57.67;;;;;;;;;;4962166;28;20114;-75
2022/01/24 11:11:52;;;;;;;129.63;58.28;;;;;;;;;;5032465;28;20108;-75
2022/01/24 11:14:21;;;;;;;124.15;56.47;;;;;;;;;;5038883;28;20027;-76
2022/01/24 11:16:52;;;;;;;133.10;55.60;;;;;;;;;;5021262;28;20017;-76
2022/01/24 11:19:39;;;;;;;118.57;55.83;;;;;;;;;;5039173;28;20041;-76
2022/01/24 11:22:08;;;;;;;126.97;57.30;;;;;;;;;;5039067;28;20026;-78
2022/01/24 11:24:46;;;;;;;128.10;58.47;;;;;;;;;;5038872;28;20079;-76
2022/01/24 11:27:14;;;;;;;133.45;61.03;;;;;;;;;;5021147;28;20029;-78
2022/01/24 11:29:43;;;;;;;139.88;57.92;;;;;;;;;;5021196;28;20338;-77
2022/01/24 11:32:27;;;;;;;142.55;62.20;;;;;;;;;;5021128;28;20431;-77
2022/01/24 11:34:56;;;;;;;160.27;66.43;;;;;;;;;;5038613;28;20037;-78
2022/01/24 11:37:43;;;;;;;152.63;62.97;;;;;;;;;;5038450;28;20030;-75
2022/01/24 11:40:12;;;;;;;148.25;63.58;;;;;;;;;;5037050;28;20052;-77
2022/01/24 11:42:41;;;;;;;156.45;64.43;;;;;;;;;;5038411;28;20025;-76
2022/01/24 11:45:13;;;;;;;161.70;65.25;;;;;;;;;;5038206;28;20087;-75
2022/01/24 11:47:42;;;;;;;153.10;66.53;;;;;;;;;;5021178;28;20083;-77
2022/01/24 11:50:31;;;;;;;169.07;69.68;;;;;;;;;;5038141;28;20022;-75
2022/01/24 11:52:59;;;;;;;166.70;70.60;;;;;;;;;;5038134;28;20017;-76
2022/01/24 11:55:36;;;;;;;167.23;70.03;;;;;;;;;;5038041;28;20021;-75
2022/01/24 11:58:06;;;;;;;175.25;72.57;;;;;;;;;;5037956;28;20386;-75
2022/01/24 12:00:38;;;;;;;183.15;73.68;;;;;;;;;;5037816;28;20103;-75
2022/01/24 12:03:26;;;;;;;145.32;61.85;;;;;;;;;;5037697;28;20026;-74
2022/01/24 12:05:56;;;;;;;154.13;63.25;;;;;;;;;;5037726;28;20071;-75
2022/01/24 12:08:38;;;;;;;204.02;87.13;;;;;;;;;;5021512;28;20044;-73
2022/01/24 12:11:27;;;;;;;152.60;64.72;;;;;;;;;;5037635;28;20095;-78
2022/01/24 12:14:01;;;;;;;184.55;77.93;;;;;;;;;;5020234;28;20057;-74
2022/01/24 12:16:36;;;;;;;170.48;71.72;;;;;;;;;;5037516;28;20025;-76
2022/01/24 12:19:05;;;;;;;189.10;72.28;;;;;;;;;;5037584;28;20032;-74
2022/01/24 12:21:35;;;;;;;208.90;85.22;;;;;;;;;;5019912;28;20041;-75
2022/01/24 12:24:04;;;;;;;194.98;74.32;;;;;;;;;;5019825;28;20083;-75
2022/01/24 12:26:34;;;;;;;168.13;68.78;;;;;;;;;;5037482;28;20025;-74
2022/01/24 12:29:06;;;;;;;197.30;87.40;;;;;;;;;;5019592;28;20418;-74
2022/01/24 12:31:49;;;;;;;207.40;82.70;;;;;;;;;;5037367;28;20025;-75
2022/01/24 12:34:34;;;;;;;176.35;68.28;;;;;;;;;;5037365;28;20044;-77
2022/01/24 12:37:04;;;;;;;180.35;73.97;;;;;;;;;;5019649;28;20422;-74
2022/01/24 12:39:37;;;;;;;176.05;74.30;;;;;;;;;;5019522;28;20053;-73
2022/01/24 12:42:20;;;;;;;185.60;77.95;;;;;;;;;;5019754;28;20028;-76
2022/01/24 12:47:26;;;;;;;201.07;82.40;;;;;;;;;;5036937;28;20032;-74
2022/01/24 12:49:55;;;;;;;237.35;99.78;;;;;;;;;;5037026;28;20362;-74
2022/01/24 12:52:24;;;;;;;229.68;96.90;;;;;;;;;;5019154;28;20029;-73
2022/01/24 12:54:57;;;;;;;195.30;79.22;;;;;;;;;;5036870;28;20033;-74
2022/01/24 12:57:29;;;;;;;221.18;92.57;;;;;;;;;;5036839;28;20060;-73
2022/01/24 13:00:07;;;;;;;222.30;84.68;;;;;;;;;;5036631;28;20026;-76
2022/01/24 13:02:37;;;;;;;207.55;83.63;;;;;;;;;;5036604;28;20018;-74
2022/01/24 13:05:23;;;;;;;205.70;79.30;;;;;;;;;;5019255;28;20029;-75
2022/01/24 13:07:52;;;;;;;222.15;86.22;;;;;;;;;;5036286;28;20072;-75
2022/01/24 13:10:24;;;;;;;232.68;91.55;;;;;;;;;;5018721;28;20321;-75
2022/01/24 13:13:10;;;;;;;236.65;90.82;;;;;;;;;;5035616;28;20022;-74
2022/01/24 13:21:17;;;;;;;254.60;96.43;;;;;;;;;;5036875;28;20111;-74
2022/01/24 13:23:57;;;;;;;284.75;110.60;;;;;;;;;;5036507;28;20492;-75
2022/01/24 13:26:26;;;;;;;247.13;92.05;;;;;;;;;;5036354;28;20033;-74
2022/01/24 13:29:04;;;;;;;238.05;85.30;;;;;;;;;;5036071;28;20057;-73
2022/01/24 13:31:32;;;;;;;261.13;98.28;;;;;;;;;;5018574;28;20474;-76
2022/01/24 13:34:02;;;;;;;230.50;84.15;;;;;;;;;;5035771;28;20048;-74
2022/01/24 13:36:34;;;;;;;214.20;82.32;;;;;;;;;;5035904;28;20021;-74
2022/01/24 13:39:02;;;;;;;235.98;90.18;;;;;;;;;;5035762;28;20056;-74
2022/01/24 13:41:29;;;;;;;229.13;87.93;;;;;;;;;;5035918;28;20025;-74
2022/01/24 13:44:02;;;;;;;222.60;82.68;;;;;;;;;;5018573;28;20120;-75
2022/01/24 13:46:40;;;;;;;238.85;87.65;;;;;;;;;;5035942;28;20100;-75
2022/01/24 13:49:12;;;;;;;218.32;81.47;;;;;;;;;;5035767;28;20021;-74
2022/01/24 13:51:53;;;;;;;224.02;81.43;;;;;;;;;;5018114;28;20067;-74
2022/01/24 13:54:28;;;;;;;237.60;84.35;;;;;;;;;;5018442;28;20022;-74
2022/01/24 13:57:00;;;;;;;228.23;81.32;;;;;;;;;;5013717;28;20667;-74
2022/01/24 13:59:26;;;;;;;228.15;80.47;;;;;;;;;;4998252;28;20117;-72
2022/01/24 14:01:59;;;;;;;244.18;92.72;;;;;;;;;;5015909;28;20028;-74
2022/01/24 14:04:36;;;;;;;224.40;83.03;;;;;;;;;;4997941;28;20049;-74
2022/01/24 14:07:12;;;;;;;245.25;93.65;;;;;;;;;;4998665;28;20037;-74
2022/01/24 14:09:46;;;;;;;232.60;86.50;;;;;;;;;;4998218;28;20034;-74
2022/01/24 14:12:18;;;;;;;238.35;90.93;;;;;;;;;;4998541;28;20022;-74
2022/01/24 14:14:58;;;;;;;289.90;108.88;;;;;;;;;;5016000;28;20030;-77
2022/01/24 14:20:18;;;;;;;240.75;86.78;;;;;;;;;;4917565;29;20163;-75
2022/01/24 14:22:55;;;;;;;235.88;85.43;;;;;;;;;;4917724;29;20111;-74
2022/01/24 14:25:32;;;;;;;243.73;86.63;;;;;;;;;;4917568;29;20442;-75
2022/01/24 14:28:05;;;;;;;289.33;105.25;;;;;;;;;;4917518;29;20032;-75
2022/01/24 14:30:42;;;;;;;266.55;100.93;;;;;;;;;;4917540;29;20045;-74
2022/01/24 14:33:17;;;;;;;280.50;104.68;;;;;;;;;;4920352;29;20024;-75
2022/01/24 14:36:04;;;;;;;279.70;103.43;;;;;;;;;;4936540;29;20437;-75
2022/01/24 14:38:39;;;;;;;294.63;115.60;;;;;;;;;;4936321;29;20044;-74
2022/01/24 14:41:18;;;;;;;313.98;116.00;;;;;;;;;;4920248;29;20023;-75
2022/01/24 14:46:36;;;;;;;272.35;103.75;;;;;;;;;;4936442;29;20083;-75
2022/01/24 14:49:05;;;;;;;229.48;89.72;;;;;;;;;;4920382;29;20036;-75
2022/01/24 14:51:34;;;;;;;233.25;87.00;;;;;;;;;;4920344;29;20111;-75
2022/01/24 14:54:06;;;;;;;293.00;115.72;;;;;;;;;;4920445;29;20083;-75
2022/01/24 14:56:33;;;;;;;271.90;103.43;;;;;;;;;;4938352;28;20117;-75
2022/01/24 14:59:04;;;;;;;262.10;100.60;;;;;;;;;;5055322;28;20024;-75
2022/01/24 15:01:32;;;;;;;265.02;101.40;;;;;;;;;;5055291;28;20025;-76
2022/01/24 15:04:00;;;;;;;267.85;99.57;;;;;;;;;;5055052;28;20025;-76
2022/01/24 15:06:28;;;;;;;238.05;93.97;;;;;;;;;;5037603;28;20025;-76
2022/01/24 15:08:58;;;;;;;208.65;83.80;;;;;;;;;;5037418;28;20029;-76
2022/01/24 15:11:29;;;;;;;277.67;103.18;;;;;;;;;;5037335;28;20128;-77
2022/01/24 15:14:07;;;;;;;249.45;98.18;;;;;;;;;;5056280;28;20020;-76
2022/01/24 15:27:38;;;;;;;255.48;91.93;;;;;;;;;;5058519;28;20424;-76
2022/01/24 15:30:07;;;;;;;229.43;82.78;;;;;;;;;;5040474;28;20029;-76
2022/01/24 15:32:34;;;;;;;251.35;92.25;;;;;;;;;;5040668;28;20086;-75
2022/01/24 15:35:02;;;;;;;231.15;90.43;;;;;;;;;;5058376;28;20357;-75
2022/01/24 15:37:29;;;;;;;258.63;112.75;;;;;;;;;;5058336;28;20048;-74
2022/01/24 15:39:57;;;;;;;337.63;126.95;;;;;;;;;;5040379;28;20051;-74
2022/01/24 15:42:42;;;;;;;223.13;89.15;;;;;;;;;;5040549;28;20025;-74
2022/01/24 15:50:10;;;;;;;302.60;118.18;;;;;;;;;;5058151;28;20040;-75
2022/01/24 15:52:41;;;;;;;212.88;83.43;;;;;;;;;;5058119;28;20048;-74
2022/01/24 15:55:11;;;;;;;194.48;74.90;;;;;;;;;;5040395;28;20091;-74
2022/01/24 15:57:44;;;;;;;222.80;85.75;;;;;;;;;;5057881;28;20041;-74
2022/01/24 16:00:24;;;;;;;236.82;100.47;;;;;;;;;;5057924;28;20453;-74
2022/01/24 16:02:53;;;;;;;234.65;91.13;;;;;;;;;;5058194;28;20309;-76
2022/01/24 16:05:22;;;;;;;313.88;122.22;;;;;;;;;;5057751;28;20039;-74
2022/01/24 16:07:50;;;;;;;284.90;118.43;;;;;;;;;;5057476;28;20048;-73
2022/01/24 16:10:20;;;;;;;333.80;150.48;;;;;;;;;;5039959;28;20021;-74
2022/01/24 16:12:48;;;;;;;266.42;109.53;;;;;;;;;;5039814;28;20386;-73
2022/01/24 16:15:17;;;;;;;271.27;109.53;;;;;;;;;;5057709;28;20025;-74
2022/01/24 16:17:46;;;;;;;260.23;107.20;;;;;;;;;;5039847;28;20025;-74
2022/01/24 16:25:38;;;;;;;316.63;124.13;;;;;;;;;;5057159;28;20087;-75
2022/01/24 16:28:17;;;;;;;309.80;124.03;;;;;;;;;;5057613;28;20079;-75
2022/01/24 16:30:48;;;;;;;350.75;147.00;;;;;;;;;;5039831;28;20028;-76
2022/01/24 16:33:20;;;;;;;265.00;101.68;;;;;;;;;;5057555;28;20025;-78
2022/01/24 16:35:52;;;;;;;306.92;124.15;;;;;;;;;;5057349;28;20049;-76
2022/01/24 16:38:23;;;;;;;254.82;106.50;;;;;;;;;;5039567;28;20029;-78
2022/01/24 16:41:02;;;;;;;256.95;107.82;;;;;;;;;;5057267;28;20406;-75
2022/01/24 16:48:45;;;;;;;262.77;99.75;;;;;;;;;;5057142;28;20369;-76
2022/01/24 16:51:14;;;;;;;269.55;106.88;;;;;;;;;;5057330;28;20040;-77
2022/01/24 16:53:43;;;;;;;368.92;159.13;;;;;;;;;;5057364;28;20078;-76
2022/01/24 16:56:11;;;;;;;343.38;144.18;;;;;;;;;;5039704;28;20071;-75
2022/01/24 16:58:39;;;;;;;293.33;114.13;;;;;;;;;;5057072;28;20041;-76
2022/01/24 17:01:08;;;;;;;259.83;98.65;;;;;;;;;;5056980;28;20047;-75